Time;durP1;ratioP1;P1;durP2;ratioP2;P2;SDS_P1;SDS_P2;PMS_P1;PMS_P2;Temp;Humidity;BMP_temperature;BMP_pressure;BME280_temperature;BME280_humidity;BME280_pressure;Samples;Min_cycle;Max_cycle;Signal;HPM_P1;HPM_P2
2022/06/10 00:00:42;;;;;;;7.32;2.65;;;;;;;;;;5031891;28;20025;-73
2022/06/10 00:03:09;;;;;;;7.57;2.70;;;;;;;;;;5031732;28;20452;-74
2022/06/10 00:05:36;;;;;;;6.55;2.78;;;;;;;;;;5031795;28;20068;-74
2022/06/10 00:08:13;;;;;;;5.78;3.00;;;;;;;;;;5035493;28;20480;-74
2022/06/10 00:10:39;;;;;;;9.43;3.67;;;;;;;;;;5035592;28;20480;-73
2022/06/10 00:13:05;;;;;;;7.90;2.72;;;;;;;;;;5035393;28;20033;-74
2022/06/10 00:15:32;;;;;;;7.07;2.55;;;;;;;;;;5035357;28;20456;-74
2022/06/10 00:17:58;;;;;;;7.45;2.83;;;;;;;;;;5035052;28;20034;-74
2022/06/10 00:20:25;;;;;;;13.15;3.03;;;;;;;;;;5035363;28;20028;-74
2022/06/10 00:22:51;;;;;;;5.53;2.53;;;;;;;;;;5035136;28;20068;-74
2022/06/10 00:25:17;;;;;;;18.17;2.80;;;;;;;;;;5035088;28;20036;-74
2022/06/10 00:27:43;;;;;;;9.15;3.17;;;;;;;;;;5045824;28;20040;-74
2022/06/10 00:30:10;;;;;;;7.63;2.70;;;;;;;;;;5053046;28;20037;-74
2022/06/10 00:32:37;;;;;;;8.40;3.08;;;;;;;;;;5034696;28;20387;-74
2022/06/10 00:35:03;;;;;;;11.13;2.70;;;;;;;;;;5067093;28;20395;-74
2022/06/10 00:37:29;;;;;;;11.25;2.70;;;;;;;;;;5034842;28;20033;-74
2022/06/10 00:39:55;;;;;;;8.65;2.70;;;;;;;;;;5034906;28;20022;-74
2022/06/10 00:42:21;;;;;;;8.02;2.78;;;;;;;;;;5034880;28;20049;-74
2022/06/10 00:44:52;;;;;;;9.77;3.00;;;;;;;;;;5034620;28;20065;-74
2022/06/10 00:47:35;;;;;;;8.45;3.38;;;;;;;;;;5034621;28;20032;-74
2022/06/10 00:50:06;;;;;;;8.00;3.30;;;;;;;;;;5034627;28;20032;-74
2022/06/10 00:52:35;;;;;;;9.52;2.60;;;;;;;;;;5034438;28;20034;-74
2022/06/10 00:55:03;;;;;;;9.32;3.13;;;;;;;;;;5034684;28;20029;-74
2022/06/10 00:57:35;;;;;;;15.73;3.17;;;;;;;;;;5034283;28;20029;-74
2022/06/10 01:00:05;;;;;;;8.77;3.03;;;;;;;;;;5066238;28;20014;-74
2022/06/10 01:02:33;;;;;;;7.63;2.65;;;;;;;;;;5034243;28;20027;-74
2022/06/10 01:04:59;;;;;;;15.00;3.22;;;;;;;;;;5039789;28;20108;-74
2022/06/10 01:07:27;;;;;;;8.45;3.10;;;;;;;;;;5054159;28;20502;-73
2022/06/10 01:09:54;;;;;;;12.50;3.13;;;;;;;;;;5054152;28;20057;-74
2022/06/10 01:12:27;;;;;;;8.23;3.38;;;;;;;;;;5053946;28;20128;-74
2022/06/10 01:15:01;;;;;;;9.05;2.80;;;;;;;;;;5053957;28;20108;-74
2022/06/10 01:17:33;;;;;;;6.63;3.00;;;;;;;;;;5053219;28;20099;-74
2022/06/10 01:20:13;;;;;;;6.90;3.10;;;;;;;;;;5053636;28;20013;-74
2022/06/10 01:22:48;;;;;;;10.15;3.53;;;;;;;;;;5053978;28;20032;-74
2022/06/10 01:25:17;;;;;;;8.25;4.20;;;;;;;;;;5054164;28;20443;-74
2022/06/10 01:27:52;;;;;;;11.65;3.47;;;;;;;;;;5053687;28;20029;-74
2022/06/10 01:30:37;;;;;;;10.27;3.30;;;;;;;;;;5053956;28;20386;-74
2022/06/10 01:33:06;;;;;;;11.57;4.15;;;;;;;;;;5054072;28;20123;-74
2022/06/10 01:35:37;;;;;;;7.90;3.85;;;;;;;;;;5053617;28;20051;-74
2022/06/10 01:38:23;;;;;;;8.73;3.60;;;;;;;;;;5053697;28;20036;-74
2022/06/10 01:41:00;;;;;;;9.02;3.80;;;;;;;;;;5053531;28;20021;-74
2022/06/10 01:43:38;;;;;;;11.15;3.33;;;;;;;;;;5053699;28;20040;-74
2022/06/10 01:46:25;;;;;;;12.10;3.95;;;;;;;;;;5053365;28;20613;-74
2022/06/10 01:48:55;;;;;;;11.30;3.88;;;;;;;;;;5053352;28;20024;-74
2022/06/10 01:51:28;;;;;;;13.13;4.00;;;;;;;;;;5053415;28;20170;-74
2022/06/10 01:53:56;;;;;;;10.77;3.95;;;;;;;;;;5053386;28;20444;-73
2022/06/10 01:56:25;;;;;;;14.50;3.58;;;;;;;;;;5053192;28;20082;-74
2022/06/10 01:59:17;;;;;;;10.25;3.65;;;;;;;;;;5053308;28;20047;-74
2022/06/10 02:01:47;;;;;;;13.95;4.07;;;;;;;;;;5050687;28;20499;-74
2022/06/10 02:04:18;;;;;;;14.85;3.88;;;;;;;;;;5053511;28;20033;-74
2022/06/10 02:06:51;;;;;;;8.55;3.70;;;;;;;;;;5033364;28;20029;-74
2022/06/10 02:09:26;;;;;;;12.45;3.95;;;;;;;;;;5033196;28;20030;-74
2022/06/10 02:11:58;;;;;;;10.18;3.45;;;;;;;;;;5033064;28;20044;-74
2022/06/10 02:14:30;;;;;;;8.40;3.83;;;;;;;;;;5033000;28;20022;-74
2022/06/10 02:16:57;;;;;;;12.90;3.88;;;;;;;;;;5032716;28;20321;-74
2022/06/10 02:19:26;;;;;;;11.55;4.18;;;;;;;;;;5032793;28;20431;-74
2022/06/10 02:21:54;;;;;;;9.35;3.70;;;;;;;;;;5032746;28;20030;-74
2022/06/10 02:24:29;;;;;;;12.98;4.00;;;;;;;;;;5032799;28;20379;-74
2022/06/10 02:26:58;;;;;;;13.95;4.55;;;;;;;;;;5032846;28;20060;-74
2022/06/10 02:29:29;;;;;;;10.05;3.88;;;;;;;;;;5032474;28;20173;-74
2022/06/10 02:31:59;;;;;;;20.17;5.05;;;;;;;;;;5032582;28;20026;-74
2022/06/10 02:34:27;;;;;;;15.10;4.28;;;;;;;;;;5032608;28;20029;-74
2022/06/10 02:36:55;;;;;;;15.25;4.78;;;;;;;;;;5032388;28;20029;-74
2022/06/10 02:39:24;;;;;;;10.95;4.25;;;;;;;;;;5032429;28;20440;-74
2022/06/10 02:42:00;;;;;;;9.95;3.47;;;;;;;;;;5032314;28;20024;-74
2022/06/10 02:44:32;;;;;;;19.33;4.88;;;;;;;;;;5032230;28;20103;-74
2022/06/10 02:47:01;;;;;;;13.35;4.88;;;;;;;;;;5032412;28;20030;-75
2022/06/10 02:49:28;;;;;;;17.17;4.00;;;;;;;;;;5032478;28;20120;-75
2022/06/10 02:51:54;;;;;;;12.35;4.30;;;;;;;;;;5032294;28;20083;-74
2022/06/10 02:54:28;;;;;;;11.00;3.63;;;;;;;;;;5032291;28;20040;-75
2022/06/10 02:56:54;;;;;;;12.10;3.58;;;;;;;;;;5032225;28;20030;-75
2022/06/10 03:02:07;;;;;;;10.15;3.88;;;;;;;;;;5032188;28;20040;-75
2022/06/10 03:04:39;;;;;;;9.05;3.28;;;;;;;;;;5034192;28;20088;-74
2022/06/10 03:07:24;;;;;;;8.75;3.40;;;;;;;;;;5052141;28;20033;-75
2022/06/10 03:09:50;;;;;;;14.75;3.83;;;;;;;;;;5052234;28;20029;-75
2022/06/10 03:12:22;;;;;;;9.63;3.28;;;;;;;;;;5051924;28;20029;-75
2022/06/10 03:14:52;;;;;;;11.30;3.10;;;;;;;;;;5051849;28;20155;-75
2022/06/10 03:17:23;;;;;;;16.67;2.88;;;;;;;;;;5051711;28;20489;-74
2022/06/10 03:20:07;;;;;;;16.00;3.58;;;;;;;;;;5052061;28;20028;-74
2022/06/10 03:22:33;;;;;;;11.75;3.40;;;;;;;;;;5051832;28;20037;-74
2022/06/10 03:25:18;;;;;;;11.70;2.85;;;;;;;;;;5052142;28;20029;-74
2022/06/10 03:27:49;;;;;;;10.10;3.05;;;;;;;;;;5052120;28;20037;-74
2022/06/10 03:30:17;;;;;;;14.27;3.38;;;;;;;;;;5052048;28;20044;-75
2022/06/10 03:32:49;;;;;;;12.43;3.30;;;;;;;;;;5051942;28;20060;-75
2022/06/10 03:35:15;;;;;;;16.83;3.63;;;;;;;;;;5051969;28;20071;-75
2022/06/10 03:37:42;;;;;;;15.23;4.22;;;;;;;;;;5051688;28;20083;-74
2022/06/10 03:40:13;;;;;;;12.10;3.22;;;;;;;;;;5051826;28;20025;-74
2022/06/10 03:42:45;;;;;;;9.60;3.00;;;;;;;;;;5053628;28;20368;-75
2022/06/10 03:45:15;;;;;;;15.95;3.15;;;;;;;;;;5054656;28;20057;-74
2022/06/10 03:47:42;;;;;;;10.13;3.30;;;;;;;;;;5055847;28;20025;-74
2022/06/10 03:50:12;;;;;;;11.15;3.53;;;;;;;;;;5055641;28;20098;-75
2022/06/10 03:52:39;;;;;;;12.25;3.13;;;;;;;;;;5055688;28;20021;-74
2022/06/10 03:55:06;;;;;;;13.15;3.30;;;;;;;;;;5055602;28;20017;-74
2022/06/10 03:57:32;;;;;;;14.40;3.90;;;;;;;;;;5055465;28;20032;-74
2022/06/10 03:59:58;;;;;;;13.90;3.35;;;;;;;;;;5055569;28;20021;-73
2022/06/10 04:02:24;;;;;;;14.25;3.20;;;;;;;;;;5055397;28;20154;-73
2022/06/10 04:04:51;;;;;;;13.95;3.78;;;;;;;;;;5051521;28;20041;-74
2022/06/10 04:07:19;;;;;;;11.40;3.20;;;;;;;;;;5067722;28;20033;-74
2022/06/10 04:09:45;;;;;;;14.27;3.88;;;;;;;;;;5035339;28;20079;-75
2022/06/10 04:12:11;;;;;;;9.65;2.75;;;;;;;;;;5067203;28;20048;-73
2022/06/10 04:14:37;;;;;;;8.63;2.33;;;;;;;;;;5035297;28;20041;-73
2022/06/10 04:17:04;;;;;;;13.85;2.90;;;;;;;;;;5035118;28;20022;-74
2022/06/10 04:19:30;;;;;;;12.75;2.47;;;;;;;;;;5035408;28;20109;-74
2022/06/10 04:21:56;;;;;;;11.60;2.47;;;;;;;;;;5035522;28;20097;-74
2022/06/10 04:24:22;;;;;;;8.55;2.42;;;;;;;;;;5035186;28;20068;-74
2022/06/10 04:26:48;;;;;;;12.40;2.20;;;;;;;;;;5035252;28;20025;-73
2022/06/10 04:29:15;;;;;;;7.28;1.92;;;;;;;;;;5035383;28;20033;-74
2022/06/10 04:31:41;;;;;;;11.65;1.85;;;;;;;;;;5035128;28;20036;-73
2022/06/10 04:34:07;;;;;;;6.63;1.88;;;;;;;;;;5035086;28;20025;-74
2022/06/10 04:36:33;;;;;;;14.50;2.22;;;;;;;;;;5035147;28;20025;-74
2022/06/10 04:38:59;;;;;;;14.32;2.30;;;;;;;;;;5034870;28;20025;-74
2022/06/10 04:41:26;;;;;;;14.02;2.30;;;;;;;;;;5035016;28;20021;-74
2022/06/10 04:43:52;;;;;;;12.73;2.55;;;;;;;;;;5034718;28;20030;-74
2022/06/10 04:46:28;;;;;;;10.63;2.58;;;;;;;;;;5035026;28;20782;-73
2022/06/10 04:48:54;;;;;;;12.63;2.17;;;;;;;;;;5034835;28;20179;-75
2022/06/10 04:51:21;;;;;;;11.25;2.15;;;;;;;;;;5034787;28;20029;-75
2022/06/10 04:53:47;;;;;;;8.25;2.13;;;;;;;;;;5034627;28;20021;-74
2022/06/10 04:56:13;;;;;;;13.05;2.40;;;;;;;;;;5034657;28;20045;-75
2022/06/10 04:58:39;;;;;;;11.50;2.47;;;;;;;;;;5034637;28;20034;-75
2022/06/10 05:01:05;;;;;;;13.60;2.67;;;;;;;;;;5034531;28;20033;-75
2022/06/10 05:03:32;;;;;;;13.35;2.90;;;;;;;;;;5033090;28;20037;-75
2022/06/10 05:05:58;;;;;;;7.88;2.35;;;;;;;;;;5047826;28;20032;-75
2022/06/10 05:08:24;;;;;;;8.18;2.83;;;;;;;;;;5054526;28;20017;-73
2022/06/10 05:10:50;;;;;;;12.32;2.85;;;;;;;;;;5054213;28;20021;-73
2022/06/10 05:13:17;;;;;;;8.23;2.60;;;;;;;;;;5054228;28;20507;-75
2022/06/10 05:15:43;;;;;;;11.75;2.53;;;;;;;;;;5054087;28;20025;-76
2022/06/10 05:18:10;;;;;;;12.30;2.58;;;;;;;;;;5054330;28;20106;-73
2022/06/10 05:20:40;;;;;;;13.55;2.30;;;;;;;;;;5053866;28;20053;-75
2022/06/10 05:23:07;;;;;;;15.57;2.63;;;;;;;;;;5054303;28;20017;-75
2022/06/10 05:25:34;;;;;;;11.05;2.80;;;;;;;;;;5054077;28;20037;-75
2022/06/10 05:28:00;;;;;;;8.13;2.65;;;;;;;;;;5053913;28;20327;-74
2022/06/10 05:30:27;;;;;;;12.52;2.28;;;;;;;;;;5053778;28;20021;-75
2022/06/10 05:32:53;;;;;;;13.27;2.47;;;;;;;;;;5054038;28;20502;-75
2022/06/10 05:35:19;;;;;;;8.50;3.10;;;;;;;;;;5053989;28;20083;-75
2022/06/10 05:37:49;;;;;;;10.73;2.75;;;;;;;;;;5053905;28;20028;-75
2022/06/10 05:40:15;;;;;;;11.20;2.67;;;;;;;;;;5053652;28;20025;-75
2022/06/10 05:42:43;;;;;;;7.90;2.70;;;;;;;;;;5052324;28;20451;-75
2022/06/10 05:45:09;;;;;;;9.82;2.33;;;;;;;;;;5053618;28;20491;-75
2022/06/10 05:47:36;;;;;;;9.30;2.53;;;;;;;;;;5053559;28;20056;-76
2022/06/10 05:50:04;;;;;;;14.35;2.60;;;;;;;;;;5053722;28;20439;-75
2022/06/10 05:52:31;;;;;;;14.13;3.97;;;;;;;;;;5053500;28;20044;-75
2022/06/10 05:54:58;;;;;;;13.10;3.13;;;;;;;;;;5053704;28;20420;-75
2022/06/10 05:57:24;;;;;;;8.38;2.50;;;;;;;;;;5053248;28;20490;-73
2022/06/10 05:59:52;;;;;;;12.18;3.28;;;;;;;;;;5053325;28;20450;-74
2022/06/10 06:02:19;;;;;;;8.93;2.42;;;;;;;;;;5053276;28;20017;-76
2022/06/10 06:04:45;;;;;;;11.77;2.40;;;;;;;;;;5049494;28;20075;-74
2022/06/10 06:07:15;;;;;;;11.23;2.45;;;;;;;;;;5033304;28;20049;-74
2022/06/10 06:09:41;;;;;;;9.85;2.28;;;;;;;;;;5033352;28;20022;-73
2022/06/10 06:12:07;;;;;;;11.82;3.08;;;;;;;;;;5033188;28;20365;-73
2022/06/10 06:14:33;;;;;;;7.32;2.50;;;;;;;;;;5033400;28;20041;-74
2022/06/10 06:17:00;;;;;;;5.35;2.05;;;;;;;;;;5033409;28;20036;-76
2022/06/10 06:19:28;;;;;;;6.28;2.20;;;;;;;;;;5033706;28;20033;-74
2022/06/10 06:21:54;;;;;;;9.20;2.30;;;;;;;;;;5033636;28;20022;-74
2022/06/10 06:24:20;;;;;;;9.13;2.30;;;;;;;;;;5033448;28;20021;-76
2022/06/10 06:26:46;;;;;;;8.50;2.97;;;;;;;;;;5036335;28;20156;-73
2022/06/10 06:29:13;;;;;;;12.18;2.25;;;;;;;;;;5053441;28;20474;-76
2022/06/10 06:31:39;;;;;;;8.25;2.15;;;;;;;;;;5038785;28;20048;-76
2022/06/10 06:34:05;;;;;;;10.23;2.10;;;;;;;;;;5033299;28;20025;-75
2022/06/10 06:36:33;;;;;;;9.55;2.50;;;;;;;;;;5033228;28;20025;-75
2022/06/10 06:39:00;;;;;;;14.50;2.42;;;;;;;;;;5033205;28;20087;-76
2022/06/10 06:41:26;;;;;;;7.53;2.92;;;;;;;;;;5032994;28;20025;-76
2022/06/10 06:43:52;;;;;;;6.22;2.00;;;;;;;;;;5032909;28;20049;-76
2022/06/10 06:46:19;;;;;;;12.35;2.42;;;;;;;;;;5033225;28;20052;-76
2022/06/10 06:48:45;;;;;;;4.32;2.10;;;;;;;;;;5033522;28;20033;-76
2022/06/10 06:51:11;;;;;;;8.63;2.08;;;;;;;;;;5033177;28;20029;-76
2022/06/10 06:53:38;;;;;;;11.48;2.05;;;;;;;;;;5033210;28;20028;-76
2022/06/10 06:56:04;;;;;;;13.15;2.58;;;;;;;;;;5033217;28;20125;-77
2022/06/10 06:58:32;;;;;;;11.13;2.67;;;;;;;;;;5033141;28;20100;-76
2022/06/10 07:00:58;;;;;;;7.97;2.05;;;;;;;;;;5032943;28;20444;-76
2022/06/10 07:03:24;;;;;;;5.03;1.50;;;;;;;;;;5033231;28;20033;-77
2022/06/10 07:05:51;;;;;;;9.65;2.30;;;;;;;;;;5045141;28;20402;-76
2022/06/10 07:08:17;;;;;;;14.00;2.35;;;;;;;;;;5052969;28;20033;-76
2022/06/10 07:10:43;;;;;;;10.35;1.90;;;;;;;;;;5052750;28;20052;-76
2022/06/10 07:13:09;;;;;;;11.55;2.25;;;;;;;;;;5052887;28;20031;-76
2022/06/10 07:15:40;;;;;;;11.15;2.17;;;;;;;;;;5052250;28;20025;-76
2022/06/10 07:18:07;;;;;;;7.07;1.80;;;;;;;;;;5052541;28;20097;-76
2022/06/10 07:20:34;;;;;;;8.73;2.70;;;;;;;;;;5052810;28;20454;-76
2022/06/10 07:23:00;;;;;;;10.00;1.98;;;;;;;;;;5052855;28;20021;-76
2022/06/10 07:25:28;;;;;;;9.32;2.47;;;;;;;;;;5052674;28;20017;-76
2022/06/10 07:27:55;;;;;;;11.90;2.38;;;;;;;;;;5051292;28;20025;-76
2022/06/10 07:30:22;;;;;;;5.95;2.17;;;;;;;;;;5052246;28;20029;-76
2022/06/10 07:32:48;;;;;;;7.43;2.22;;;;;;;;;;5052434;28;20017;-76
2022/06/10 07:35:15;;;;;;;9.48;2.25;;;;;;;;;;5052570;28;20029;-76
2022/06/10 07:37:41;;;;;;;8.07;2.10;;;;;;;;;;5052345;28;20033;-76
2022/06/10 07:41:56;;;;;;;6.75;2.03;;;;;;;;;;5052796;28;20044;-76
2022/06/10 07:42:54;;;;;;;6.63;1.73;;;;;;;;;;5052498;28;20371;-76
2022/06/10 07:45:20;;;;;;;6.13;1.65;;;;;;;;;;5052417;28;20128;-76
2022/06/10 07:47:46;;;;;;;16.10;2.15;;;;;;;;;;5052486;28;20396;-76
2022/06/10 07:50:12;;;;;;;8.32;1.80;;;;;;;;;;5052517;28;20021;-76
2022/06/10 07:52:38;;;;;;;12.23;1.98;;;;;;;;;;5052597;28;20028;-76
2022/06/10 07:55:04;;;;;;;10.40;2.00;;;;;;;;;;5052403;28;20456;-76
2022/06/10 07:57:30;;;;;;;7.25;2.03;;;;;;;;;;5052682;28;20033;-76
2022/06/10 07:59:56;;;;;;;6.07;1.65;;;;;;;;;;5052555;28;20021;-76
2022/06/10 08:02:23;;;;;;;11.52;2.88;;;;;;;;;;5052164;28;20033;-76
2022/06/10 08:04:49;;;;;;;8.05;1.55;;;;;;;;;;5052766;28;20106;-76
2022/06/10 08:07:15;;;;;;;7.25;1.98;;;;;;;;;;5052276;28;20027;-76
2022/06/10 08:09:41;;;;;;;5.45;1.70;;;;;;;;;;5052452;28;20028;-76
2022/06/10 08:12:07;;;;;;;4.28;1.33;;;;;;;;;;5052141;28;20467;-76
2022/06/10 08:14:33;;;;;;;7.13;1.73;;;;;;;;;;5052160;28;20029;-76
2022/06/10 08:17:03;;;;;;;4.43;1.80;;;;;;;;;;5052248;28;20112;-76
2022/06/10 08:19:32;;;;;;;9.75;1.73;;;;;;;;;;5052473;28;20017;-76
2022/06/10 08:24:43;;;;;;;7.50;1.40;;;;;;;;;;5052064;28;20075;-76
2022/06/10 08:27:09;;;;;;;12.48;3.00;;;;;;;;;;5052522;28;20017;-76
2022/06/10 08:29:35;;;;;;;9.15;1.60;;;;;;;;;;5055591;28;20021;-76
2022/06/10 08:32:01;;;;;;;9.20;1.70;;;;;;;;;;5055434;28;20356;-76
2022/06/10 08:34:27;;;;;;;8.43;1.80;;;;;;;;;;5055499;28;20048;-76
2022/06/10 08:36:53;;;;;;;8.70;1.85;;;;;;;;;;5055542;28;20025;-76
2022/06/10 08:39:19;;;;;;;5.75;1.63;;;;;;;;;;5055740;28;20032;-76
2022/06/10 08:42:03;;;;;;;7.28;1.52;;;;;;;;;;5055546;28;20017;-76
2022/06/10 08:44:41;;;;;;;7.78;1.50;;;;;;;;;;5055425;28;20354;-76
2022/06/10 08:47:27;;;;;;;6.40;1.60;;;;;;;;;;5055691;28;20052;-76
2022/06/10 08:50:12;;;;;;;5.45;1.25;;;;;;;;;;5055465;28;20067;-77
2022/06/10 08:52:52;;;;;;;6.30;1.45;;;;;;;;;;5055327;28;20471;-76
2022/06/10 08:55:36;;;;;;;11.20;2.13;;;;;;;;;;5055351;28;20051;-76
2022/06/10 08:58:04;;;;;;;5.35;1.80;;;;;;;;;;5055085;28;20040;-76
2022/06/10 09:00:32;;;;;;;6.25;1.33;;;;;;;;;;5055162;28;20025;-76
2022/06/10 09:03:17;;;;;;;7.45;1.67;;;;;;;;;;5055068;28;20039;-76
2022/06/10 09:05:53;;;;;;;6.53;1.67;;;;;;;;;;5054947;28;20021;-76
2022/06/10 09:08:22;;;;;;;8.50;1.88;;;;;;;;;;5054978;28;20099;-76
2022/06/10 09:11:09;;;;;;;9.13;2.08;;;;;;;;;;5054753;28;20064;-75
2022/06/10 09:13:39;;;;;;;7.75;1.65;;;;;;;;;;4993426;28;20088;-76
2022/06/10 09:16:05;;;;;;;3.90;1.30;;;;;;;;;;4993429;28;20477;-76
2022/06/10 09:18:31;;;;;;;7.45;1.23;;;;;;;;;;4993329;28;20038;-76
2022/06/10 09:21:02;;;;;;;10.80;1.45;;;;;;;;;;4993460;28;20070;-76
2022/06/10 09:23:32;;;;;;;7.70;1.42;;;;;;;;;;4993414;28;20077;-75
2022/06/10 09:26:02;;;;;;;6.40;1.70;;;;;;;;;;4992760;28;20045;-76
2022/06/10 09:28:29;;;;;;;6.72;1.38;;;;;;;;;;4993102;28;20034;-76
2022/06/10 09:30:56;;;;;;;12.75;1.73;;;;;;;;;;4985082;28;20035;-76
2022/06/10 09:33:39;;;;;;;9.77;2.05;;;;;;;;;;4973332;28;20046;-76
2022/06/10 09:36:08;;;;;;;5.85;1.52;;;;;;;;;;4973538;28;20482;-76
2022/06/10 09:38:41;;;;;;;10.77;1.80;;;;;;;;;;4972794;28;20027;-75
2022/06/10 09:41:27;;;;;;;8.13;1.55;;;;;;;;;;4973593;28;20090;-76
2022/06/10 09:43:55;;;;;;;6.70;1.52;;;;;;;;;;4966825;28;20375;-76
2022/06/10 09:46:26;;;;;;;8.45;1.90;;;;;;;;;;4973516;28;20031;-76
2022/06/10 09:49:04;;;;;;;11.50;2.22;;;;;;;;;;4973420;28;20109;-75
2022/06/10 09:51:46;;;;;;;9.95;1.90;;;;;;;;;;5025540;28;20045;-74
2022/06/10 09:54:18;;;;;;;8.90;1.50;;;;;;;;;;5034492;28;20021;-75
2022/06/10 09:57:01;;;;;;;8.85;1.65;;;;;;;;;;5033949;28;20079;-76
2022/06/10 09:59:47;;;;;;;9.57;1.83;;;;;;;;;;5034247;28;20030;-76
2022/06/10 10:02:31;;;;;;;7.43;1.60;;;;;;;;;;5066075;28;20418;-76
2022/06/10 10:05:06;;;;;;;10.73;1.95;;;;;;;;;;5034614;28;20635;-76
2022/06/10 10:07:49;;;;;;;10.85;2.03;;;;;;;;;;5033845;28;20033;-76
2022/06/10 10:10:22;;;;;;;6.50;1.65;;;;;;;;;;5033896;28;20021;-76
2022/06/10 10:12:48;;;;;;;5.72;1.45;;;;;;;;;;5065767;28;20026;-76
2022/06/10 10:15:30;;;;;;;7.25;1.58;;;;;;;;;;5033782;28;20022;-76
2022/06/10 10:18:03;;;;;;;9.70;1.90;;;;;;;;;;5033515;28;20040;-76
2022/06/10 10:20:48;;;;;;;7.60;1.50;;;;;;;;;;5033800;28;20103;-76
2022/06/10 10:23:28;;;;;;;8.10;1.95;;;;;;;;;;5033707;28;20125;-76
2022/06/10 10:25:54;;;;;;;9.85;1.80;;;;;;;;;;5033491;28;20013;-76
2022/06/10 10:28:26;;;;;;;9.90;1.90;;;;;;;;;;5033346;28;20144;-76
2022/06/10 10:31:09;;;;;;;6.20;1.60;;;;;;;;;;5041168;28;20025;-76
2022/06/10 10:33:35;;;;;;;10.23;1.70;;;;;;;;;;5053425;28;20354;-76
2022/06/10 10:36:01;;;;;;;8.23;2.08;;;;;;;;;;5053111;28;20030;-76
2022/06/10 10:38:30;;;;;;;6.93;1.73;;;;;;;;;;5053257;28;20025;-76
2022/06/10 10:40:56;;;;;;;9.02;2.00;;;;;;;;;;5053236;28;20472;-76
2022/06/10 10:43:24;;;;;;;8.30;1.80;;;;;;;;;;5053208;28;20070;-76
2022/06/10 10:46:11;;;;;;;13.75;2.53;;;;;;;;;;5053014;28;20049;-76
2022/06/10 10:48:43;;;;;;;9.18;2.08;;;;;;;;;;5042608;28;20060;-76
2022/06/10 10:51:13;;;;;;;7.43;1.92;;;;;;;;;;5053005;28;20582;-76
2022/06/10 10:53:43;;;;;;;8.95;1.70;;;;;;;;;;5053166;28;20040;-76
2022/06/10 10:56:11;;;;;;;15.00;2.28;;;;;;;;;;5053067;28;20032;-76
2022/06/10 10:58:39;;;;;;;9.27;2.40;;;;;;;;;;5052937;28;20017;-76
2022/06/10 11:01:07;;;;;;;7.32;2.10;;;;;;;;;;5052906;28;20154;-76
2022/06/10 11:03:45;;;;;;;4.97;1.88;;;;;;;;;;5053118;28;20033;-76
2022/06/10 11:06:23;;;;;;;6.68;2.45;;;;;;;;;;5037796;28;20025;-76
2022/06/10 11:08:56;;;;;;;10.55;2.13;;;;;;;;;;5033108;28;20032;-76
2022/06/10 11:11:29;;;;;;;8.75;2.10;;;;;;;;;;5033031;28;20017;-76
2022/06/10 11:13:59;;;;;;;15.60;2.25;;;;;;;;;;5032894;28;20025;-76
2022/06/10 11:16:29;;;;;;;9.43;2.40;;;;;;;;;;5048024;28;20375;-76
2022/06/10 11:18:58;;;;;;;11.75;1.92;;;;;;;;;;5032773;28;20026;-76
2022/06/10 11:21:25;;;;;;;9.90;2.20;;;;;;;;;;5032771;28;20030;-76
2022/06/10 11:23:55;;;;;;;9.15;2.58;;;;;;;;;;5033019;28;20101;-76
2022/06/10 11:26:22;;;;;;;8.85;2.30;;;;;;;;;;5032643;28;20035;-76
2022/06/10 11:28:49;;;;;;;6.78;2.20;;;;;;;;;;5052236;28;20032;-76
2022/06/10 11:31:18;;;;;;;8.98;2.38;;;;;;;;;;5052668;28;20029;-76
2022/06/10 11:33:45;;;;;;;8.70;2.30;;;;;;;;;;5052510;28;20093;-76
2022/06/10 11:36:14;;;;;;;11.75;2.88;;;;;;;;;;5052469;28;20025;-76
2022/06/10 11:38:52;;;;;;;8.23;2.50;;;;;;;;;;5051288;28;20379;-76
2022/06/10 11:41:23;;;;;;;6.60;2.30;;;;;;;;;;5052879;28;20028;-76
2022/06/10 11:43:53;;;;;;;12.88;3.28;;;;;;;;;;5052317;28;20075;-76
2022/06/10 11:46:19;;;;;;;8.60;2.90;;;;;;;;;;5052040;28;20044;-76
2022/06/10 11:48:55;;;;;;;12.52;2.88;;;;;;;;;;5051001;28;20414;-76
2022/06/10 11:51:26;;;;;;;13.73;2.88;;;;;;;;;;5051147;28;20367;-76
2022/06/10 11:54:12;;;;;;;7.65;2.53;;;;;;;;;;5052407;28;20100;-76
2022/06/10 11:59:57;;;;;;;10.23;3.15;;;;;;;;;;5030091;28;20039;-76
2022/06/10 12:02:30;;;;;;;7.88;3.00;;;;;;;;;;5030948;28;20152;-76
2022/06/10 12:05:02;;;;;;;7.10;2.83;;;;;;;;;;5033653;28;20046;-76
2022/06/10 12:07:28;;;;;;;;;;;;;;;;;;5034395;28;20037;-76
2022/06/10 12:09:57;;;;;;;9.75;2.90;;;;;;;;;;5033980;28;19909;-76
2022/06/10 12:12:25;;;;;;;8.75;3.30;;;;;;;;;;5034098;28;20025;-76
2022/06/10 12:14:54;;;;;;;6.82;2.40;;;;;;;;;;5034242;28;20092;-76
2022/06/10 12:17:20;;;;;;;6.57;2.10;;;;;;;;;;5033564;28;20044;-76
2022/06/10 12:19:48;;;;;;;7.80;2.30;;;;;;;;;;5033713;28;20030;-76
2022/06/10 12:22:14;;;;;;;11.30;1.95;;;;;;;;;;5034000;28;20032;-76
2022/06/10 12:24:41;;;;;;;6.45;1.80;;;;;;;;;;5033665;28;20487;-76
2022/06/10 12:27:11;;;;;;;4.45;1.73;;;;;;;;;;5033636;28;20500;-76
2022/06/10 12:29:40;;;;;;;8.02;2.22;;;;;;;;;;5033872;28;20159;-76
2022/06/10 12:32:25;;;;;;;4.70;1.90;;;;;;;;;;5033099;28;20487;-76
2022/06/10 12:35:02;;;;;;;4.15;1.45;;;;;;;;;;5033681;28;20033;-76
2022/06/10 12:37:51;;;;;;;4.70;1.55;;;;;;;;;;5051409;28;20037;-76
2022/06/10 12:40:17;;;;;;;5.53;1.65;;;;;;;;;;5055703;28;20029;-76
2022/06/10 12:42:46;;;;;;;6.43;1.60;;;;;;;;;;5054140;28;20028;-76
2022/06/10 12:45:21;;;;;;;6.05;1.10;;;;;;;;;;5055371;28;20379;-76
2022/06/10 12:47:48;;;;;;;2.97;1.15;;;;;;;;;;5055359;28;20379;-76
2022/06/10 12:50:16;;;;;;;4.45;1.23;;;;;;;;;;5055167;28;20029;-76
2022/06/10 12:53:01;;;;;;;10.98;1.80;;;;;;;;;;5055116;28;20025;-76
2022/06/10 12:55:32;;;;;;;8.70;1.67;;;;;;;;;;5055440;28;20067;-76
2022/06/10 12:57:58;;;;;;;4.60;1.20;;;;;;;;;;5055099;28;20033;-76
2022/06/10 13:00:36;;;;;;;6.88;1.90;;;;;;;;;;5055253;28;20021;-76
2022/06/10 13:03:14;;;;;;;4.28;1.63;;;;;;;;;;5055030;28;20025;-75
2022/06/10 13:05:40;;;;;;;5.05;1.88;;;;;;;;;;5044278;28;20018;-75
2022/06/10 13:08:25;;;;;;;4.00;1.67;;;;;;;;;;5034860;28;20034;-76
2022/06/10 13:10:55;;;;;;;7.25;1.80;;;;;;;;;;5034220;28;20321;-76
2022/06/10 13:13:23;;;;;;;4.20;1.83;;;;;;;;;;5034460;28;20494;-76
2022/06/10 13:15:51;;;;;;;4.30;2.00;;;;;;;;;;5034551;28;20026;-76
2022/06/10 13:18:33;;;;;;;9.27;2.10;;;;;;;;;;5034696;28;20068;-75
2022/06/10 13:21:10;;;;;;;5.32;1.95;;;;;;;;;;5034936;28;20068;-75
2022/06/10 13:23:55;;;;;;;12.40;2.63;;;;;;;;;;5035127;28;20025;-75
2022/06/10 13:26:21;;;;;;;7.55;1.80;;;;;;;;;;5034737;28;20065;-75
2022/06/10 13:28:47;;;;;;;6.35;2.00;;;;;;;;;;5034538;28;20025;-75
2022/06/10 13:31:15;;;;;;;7.55;1.90;;;;;;;;;;5044973;28;20024;-75
2022/06/10 13:34:01;;;;;;;5.97;2.45;;;;;;;;;;5054149;28;20086;-75
2022/06/10 13:36:31;;;;;;;8.45;1.75;;;;;;;;;;5052867;28;20060;-75
2022/06/10 13:38:58;;;;;;;5.72;1.85;;;;;;;;;;5054448;28;20021;-76
2022/06/10 13:44:29;;;;;;;10.10;2.25;;;;;;;;;;5053924;28;20079;-75
2022/06/10 13:46:56;;;;;;;10.60;2.33;;;;;;;;;;5054279;28;20037;-75
2022/06/10 13:49:45;;;;;;;6.85;2.20;;;;;;;;;;5053923;28;20032;-75
2022/06/10 13:52:31;;;;;;;6.60;2.47;;;;;;;;;;5053882;28;20068;-76
2022/06/10 13:54:58;;;;;;;9.57;2.63;;;;;;;;;;5054152;28;20351;-76
2022/06/10 13:57:30;;;;;;;5.68;2.22;;;;;;;;;;5053796;28;20052;-76
2022/06/10 13:59:58;;;;;;;;;;;;;;;;;;5054120;28;20024;-76
2022/06/10 14:02:27;;;;;;;8.45;2.35;;;;;;;;;;5053959;28;19959;-75
2022/06/10 14:04:54;;;;;;;9.20;2.60;;;;;;;;;;5049665;28;20040;-76
2022/06/10 14:07:20;;;;;;;7.75;2.38;;;;;;;;;;5033871;28;20024;-76
2022/06/10 14:09:47;;;;;;;9.55;2.50;;;;;;;;;;5033883;28;20030;-74
2022/06/10 14:12:13;;;;;;;8.23;2.55;;;;;;;;;;5033960;28;20025;-75
2022/06/10 14:14:40;;;;;;;8.65;2.78;;;;;;;;;;5033877;28;20076;-75
2022/06/10 14:17:14;;;;;;;7.75;3.10;;;;;;;;;;5033660;28;20494;-76
2022/06/10 14:19:42;;;;;;;10.55;3.35;;;;;;;;;;5033711;28;20045;-75
2022/06/10 14:22:12;;;;;;;7.10;3.22;;;;;;;;;;5033846;28;20021;-75
2022/06/10 14:24:38;;;;;;;7.60;3.03;;;;;;;;;;5033299;28;20025;-75
2022/06/10 14:27:18;;;;;;;8.05;3.03;;;;;;;;;;5033374;28;20037;-75
2022/06/10 14:29:44;;;;;;;7.43;3.08;;;;;;;;;;5033674;28;20022;-76
2022/06/10 14:32:24;;;;;;;7.72;2.88;;;;;;;;;;5051753;28;20440;-75
2022/06/10 14:34:52;;;;;;;7.88;2.90;;;;;;;;;;5053537;28;20104;-75
2022/06/10 14:37:24;;;;;;;10.35;3.42;;;;;;;;;;5053418;28;20025;-75
2022/06/10 14:40:02;;;;;;;11.48;3.40;;;;;;;;;;5053459;28;20064;-75
2022/06/10 14:42:31;;;;;;;9.18;3.47;;;;;;;;;;5053522;28;20431;-76
2022/06/10 14:44:59;;;;;;;7.07;3.80;;;;;;;;;;5053096;28;20041;-75
2022/06/10 14:47:27;;;;;;;6.43;3.80;;;;;;;;;;5053344;28;20043;-75
2022/06/10 14:49:56;;;;;;;8.88;3.75;;;;;;;;;;5053196;28;20033;-75
2022/06/10 14:52:42;;;;;;;8.70;3.35;;;;;;;;;;5053464;28;20024;-76
2022/06/10 14:55:29;;;;;;;11.82;3.30;;;;;;;;;;5053114;28;20441;-75
2022/06/10 14:57:57;;;;;;;8.57;3.20;;;;;;;;;;5052932;28;20171;-76
2022/06/10 15:00:23;;;;;;;5.35;2.55;;;;;;;;;;5053331;28;20052;-76
2022/06/10 15:02:49;;;;;;;10.40;3.05;;;;;;;;;;5052987;28;20021;-76
2022/06/10 15:08:05;;;;;;;4.85;2.90;;;;;;;;;;5033492;28;20044;-75
2022/06/10 15:10:33;;;;;;;11.73;3.20;;;;;;;;;;5033085;28;20105;-75